sensor_id;sensor_type;location;lat;lon;timestamp;P1;durP1;ratioP1;P2;durP2;ratioP2
7247;SDS011;3665;51.034;13.642;2023-02-26T00:00:27;1.70;;;1.60;;
7247;SDS011;3665;51.034;13.642;2023-02-26T00:05:32;1.80;;;1.70;;
7247;SDS011;3665;51.034;13.642;2023-02-26T00:10:32;3.43;;;1.67;;
7247;SDS011;3665;51.034;13.642;2023-02-26T00:15:49;1.93;;;1.70;;
7247;SDS011;3665;51.034;13.642;2023-02-26T00:26:22;4.00;;;1.87;;
7247;SDS011;3665;51.034;13.642;2023-02-26T00:31:40;2.10;;;1.67;;
7247;SDS011;3665;51.034;13.642;2023-02-26T00:37:00;2.77;;;1.63;;
7247;SDS011;3665;51.034;13.642;2023-02-26T03:46:31;4.03;;;3.20;;
7247;SDS011;3665;51.034;13.642;2023-02-26T03:51:32;4.37;;;3.40;;
7247;SDS011;3665;51.034;13.642;2023-02-26T03:56:53;3.87;;;3.57;;
7247;SDS011;3665;51.034;13.642;2023-02-26T04:01:58;3.70;;;3.20;;
7247;SDS011;3665;51.034;13.642;2023-02-26T04:07:03;3.90;;;3.37;;
7247;SDS011;3665;51.034;13.642;2023-02-26T04:11:56;3.97;;;3.57;;
7247;SDS011;3665;51.034;13.642;2023-02-26T04:17:08;4.80;;;3.80;;
7247;SDS011;3665;51.034;13.642;2023-02-26T04:21:56;4.70;;;3.60;;
7247;SDS011;3665;51.034;13.642;2023-02-26T04:26:45;6.47;;;3.60;;
7247;SDS011;3665;51.034;13.642;2023-02-26T04:31:31;4.40;;;3.47;;
7247;SDS011;3665;51.034;13.642;2023-02-26T04:36:26;5.00;;;3.07;;
7247;SDS011;3665;51.034;13.642;2023-02-26T04:41:24;4.93;;;3.00;;
7247;SDS011;3665;51.034;13.642;2023-02-26T04:46:16;5.30;;;2.93;;
7247;SDS011;3665;51.034;13.642;2023-02-26T04:51:00;3.70;;;2.83;;
7247;SDS011;3665;51.034;13.642;2023-02-26T04:55:49;3.00;;;2.70;;
7247;SDS011;3665;51.034;13.642;2023-02-26T05:00:35;5.13;;;3.20;;
7247;SDS011;3665;51.034;13.642;2023-02-26T05:05:25;2.63;;;2.43;;
7247;SDS011;3665;51.034;13.642;2023-02-26T05:10:11;6.40;;;2.30;;
7247;SDS011;3665;51.034;13.642;2023-02-26T05:15:01;2.57;;;2.23;;
7247;SDS011;3665;51.034;13.642;2023-02-26T05:19:45;4.03;;;2.40;;
7247;SDS011;3665;51.034;13.642;2023-02-26T05:24:40;3.90;;;2.80;;
7247;SDS011;3665;51.034;13.642;2023-02-26T05:29:24;4.73;;;3.10;;
7247;SDS011;3665;51.034;13.642;2023-02-26T05:34:11;4.83;;;2.70;;
7247;SDS011;3665;51.034;13.642;2023-02-26T05:38:59;3.40;;;3.00;;
7247;SDS011;3665;51.034;13.642;2023-02-26T05:43:44;3.43;;;3.00;;
7247;SDS011;3665;51.034;13.642;2023-02-26T05:48:35;3.00;;;2.70;;
7247;SDS011;3665;51.034;13.642;2023-02-26T05:53:24;4.87;;;2.90;;
7247;SDS011;3665;51.034;13.642;2023-02-26T05:58:10;3.93;;;3.10;;
7247;SDS011;3665;51.034;13.642;2023-02-26T06:03:01;5.43;;;2.90;;
7247;SDS011;3665;51.034;13.642;2023-02-26T06:07:48;4.43;;;3.10;;
7247;SDS011;3665;51.034;13.642;2023-02-26T06:12:36;3.63;;;3.17;;
7247;SDS011;3665;51.034;13.642;2023-02-26T06:17:23;5.33;;;2.90;;
7247;SDS011;3665;51.034;13.642;2023-02-26T06:22:13;3.60;;;2.27;;
7247;SDS011;3665;51.034;13.642;2023-02-26T06:27:00;3.47;;;3.10;;
7247;SDS011;3665;51.034;13.642;2023-02-26T06:31:49;4.87;;;2.93;;
7247;SDS011;3665;51.034;13.642;2023-02-26T06:36:36;3.20;;;2.90;;
7247;SDS011;3665;51.034;13.642;2023-02-26T06:41:26;4.37;;;2.70;;
7247;SDS011;3665;51.034;13.642;2023-02-26T06:46:12;5.73;;;3.17;;
7247;SDS011;3665;51.034;13.642;2023-02-26T06:51:00;5.30;;;3.30;;
7247;SDS011;3665;51.034;13.642;2023-02-26T06:55:49;6.60;;;3.03;;
7247;SDS011;3665;51.034;13.642;2023-02-26T07:00:35;4.30;;;3.17;;
7247;SDS011;3665;51.034;13.642;2023-02-26T07:05:24;2.90;;;2.60;;
7247;SDS011;3665;51.034;13.642;2023-02-26T07:10:12;5.00;;;2.90;;
7247;SDS011;3665;51.034;13.642;2023-02-26T07:14:59;5.37;;;2.73;;
7247;SDS011;3665;51.034;13.642;2023-02-26T07:19:47;2.90;;;2.43;;
7247;SDS011;3665;51.034;13.642;2023-02-26T07:24:37;3.67;;;2.37;;
7247;SDS011;3665;51.034;13.642;2023-02-26T07:29:26;3.90;;;2.53;;
7247;SDS011;3665;51.034;13.642;2023-02-26T07:34:10;2.77;;;2.07;;
7247;SDS011;3665;51.034;13.642;2023-02-26T07:39:00;2.43;;;2.23;;
7247;SDS011;3665;51.034;13.642;2023-02-26T07:43:48;3.33;;;2.37;;
7247;SDS011;3665;51.034;13.642;2023-02-26T07:48:36;4.67;;;2.30;;
7247;SDS011;3665;51.034;13.642;2023-02-26T07:53:23;2.40;;;2.17;;
7247;SDS011;3665;51.034;13.642;2023-02-26T07:58:10;2.43;;;2.20;;
7247;SDS011;3665;51.034;13.642;2023-02-26T08:03:00;5.00;;;1.90;;
7247;SDS011;3665;51.034;13.642;2023-02-26T08:07:48;2.20;;;2.00;;
7247;SDS011;3665;51.034;13.642;2023-02-26T08:12:38;3.37;;;1.83;;
7247;SDS011;3665;51.034;13.642;2023-02-26T08:17:24;1.47;;;1.37;;
7247;SDS011;3665;51.034;13.642;2023-02-26T08:22:10;2.27;;;1.40;;
7247;SDS011;3665;51.034;13.642;2023-02-26T08:26:59;2.40;;;1.87;;
7247;SDS011;3665;51.034;13.642;2023-02-26T08:31:48;1.80;;;1.40;;
7247;SDS011;3665;51.034;13.642;2023-02-26T08:36:35;3.27;;;1.80;;
7247;SDS011;3665;51.034;13.642;2023-02-26T08:41:24;4.03;;;1.80;;
7247;SDS011;3665;51.034;13.642;2023-02-26T08:46:13;4.73;;;1.50;;
7247;SDS011;3665;51.034;13.642;2023-02-26T08:50:59;4.80;;;1.67;;
7247;SDS011;3665;51.034;13.642;2023-02-26T08:55:48;3.87;;;1.43;;
7247;SDS011;3665;51.034;13.642;2023-02-26T09:00:36;2.70;;;1.33;;
7247;SDS011;3665;51.034;13.642;2023-02-26T09:05:25;2.70;;;1.50;;
7247;SDS011;3665;51.034;13.642;2023-02-26T09:10:14;3.60;;;1.70;;
7247;SDS011;3665;51.034;13.642;2023-02-26T09:15:01;2.63;;;1.50;;
7247;SDS011;3665;51.034;13.642;2023-02-26T09:19:56;3.00;;;1.40;;
7247;SDS011;3665;51.034;13.642;2023-02-26T09:24:54;5.20;;;1.40;;
7247;SDS011;3665;51.034;13.642;2023-02-26T09:29:42;1.77;;;1.67;;
7247;SDS011;3665;51.034;13.642;2023-02-26T09:34:36;2.60;;;1.80;;
7247;SDS011;3665;51.034;13.642;2023-02-26T09:39:33;1.83;;;0.90;;
7247;SDS011;3665;51.034;13.642;2023-02-26T09:44:22;1.47;;;1.10;;
7247;SDS011;3665;51.034;13.642;2023-02-26T09:49:11;2.50;;;1.67;;
7247;SDS011;3665;51.034;13.642;2023-02-26T09:54:13;2.90;;;1.70;;
7247;SDS011;3665;51.034;13.642;2023-02-26T09:59:03;2.33;;;1.27;;
7247;SDS011;3665;51.034;13.642;2023-02-26T10:03:53;2.47;;;1.37;;
7247;SDS011;3665;51.034;13.642;2023-02-26T10:09:00;4.30;;;1.30;;
7247;SDS011;3665;51.034;13.642;2023-02-26T10:14:14;2.10;;;1.37;;
7247;SDS011;3665;51.034;13.642;2023-02-26T10:19:20;3.47;;;1.30;;
7247;SDS011;3665;51.034;13.642;2023-02-26T11:01:13;2.57;;;1.10;;
7247;SDS011;3665;51.034;13.642;2023-02-26T11:24:04;2.80;;;0.80;;
7247;SDS011;3665;51.034;13.642;2023-02-26T11:29:40;1.60;;;0.90;;
7247;SDS011;3665;51.034;13.642;2023-02-26T11:34:34;1.97;;;1.00;;
7247;SDS011;3665;51.034;13.642;2023-02-26T11:45:25;3.13;;;1.17;;
7247;SDS011;3665;51.034;13.642;2023-02-26T11:50:14;3.00;;;1.07;;
7247;SDS011;3665;51.034;13.642;2023-02-26T11:55:42;2.50;;;0.90;;
7247;SDS011;3665;51.034;13.642;2023-02-26T12:00:52;2.40;;;0.80;;
7247;SDS011;3665;51.034;13.642;2023-02-26T12:05:40;2.70;;;1.40;;
7247;SDS011;3665;51.034;13.642;2023-02-26T12:10:28;1.10;;;0.80;;
7247;SDS011;3665;51.034;13.642;2023-02-26T12:15:34;0.83;;;0.77;;
7247;SDS011;3665;51.034;13.642;2023-02-26T12:21:30;1.30;;;0.70;;
7247;SDS011;3665;51.034;13.642;2023-02-26T12:26:45;1.13;;;0.70;;
7247;SDS011;3665;51.034;13.642;2023-02-26T12:42:30;2.50;;;1.07;;
7247;SDS011;3665;51.034;13.642;2023-02-26T12:47:40;1.27;;;0.77;;
7247;SDS011;3665;51.034;13.642;2023-02-26T13:09:09;2.97;;;1.20;;
7247;SDS011;3665;51.034;13.642;2023-02-26T13:14:17;2.97;;;1.77;;
7247;SDS011;3665;51.034;13.642;2023-02-26T13:19:40;2.13;;;1.23;;
7247;SDS011;3665;51.034;13.642;2023-02-26T13:24:38;1.90;;;1.03;;
7247;SDS011;3665;51.034;13.642;2023-02-26T13:29:46;3.40;;;1.07;;
7247;SDS011;3665;51.034;13.642;2023-02-26T13:34:49;2.43;;;1.37;;
7247;SDS011;3665;51.034;13.642;2023-02-26T13:39:49;3.70;;;1.10;;
7247;SDS011;3665;51.034;13.642;2023-02-26T13:44:58;2.10;;;1.23;;
7247;SDS011;3665;51.034;13.642;2023-02-26T13:50:21;2.33;;;1.63;;
7247;SDS011;3665;51.034;13.642;2023-02-26T13:55:42;1.67;;;1.00;;
7247;SDS011;3665;51.034;13.642;2023-02-26T14:00:37;2.47;;;1.40;;
7247;SDS011;3665;51.034;13.642;2023-02-26T14:11:01;3.67;;;1.23;;
7247;SDS011;3665;51.034;13.642;2023-02-26T14:15:51;1.33;;;1.07;;
7247;SDS011;3665;51.034;13.642;2023-02-26T14:26:12;3.27;;;1.30;;
7247;SDS011;3665;51.034;13.642;2023-02-26T14:31:17;4.57;;;1.40;;
7247;SDS011;3665;51.034;13.642;2023-02-26T14:36:04;4.77;;;1.40;;
7247;SDS011;3665;51.034;13.642;2023-02-26T14:41:02;3.13;;;1.57;;
7247;SDS011;3665;51.034;13.642;2023-02-26T14:45:59;1.37;;;1.00;;
7247;SDS011;3665;51.034;13.642;2023-02-26T14:50:46;2.47;;;0.87;;
7247;SDS011;3665;51.034;13.642;2023-02-26T14:55:51;2.77;;;0.83;;
7247;SDS011;3665;51.034;13.642;2023-02-26T15:01:10;2.37;;;1.03;;
7247;SDS011;3665;51.034;13.642;2023-02-26T15:06:15;3.00;;;1.47;;
7247;SDS011;3665;51.034;13.642;2023-02-26T15:11:19;1.07;;;1.00;;
7247;SDS011;3665;51.034;13.642;2023-02-26T15:16:23;3.93;;;1.00;;
7247;SDS011;3665;51.034;13.642;2023-02-26T15:21:25;1.60;;;1.13;;
7247;SDS011;3665;51.034;13.642;2023-02-26T15:31:51;4.37;;;1.40;;
7247;SDS011;3665;51.034;13.642;2023-02-26T15:36:36;0.93;;;0.80;;
7247;SDS011;3665;51.034;13.642;2023-02-26T15:41:25;1.70;;;0.90;;
7247;SDS011;3665;51.034;13.642;2023-02-26T15:46:11;1.43;;;0.90;;
7247;SDS011;3665;51.034;13.642;2023-02-26T15:51:02;1.20;;;1.10;;
7247;SDS011;3665;51.034;13.642;2023-02-26T15:55:48;1.63;;;1.00;;
7247;SDS011;3665;51.034;13.642;2023-02-26T16:00:36;2.13;;;0.90;;
7247;SDS011;3665;51.034;13.642;2023-02-26T16:05:24;2.20;;;1.27;;
7247;SDS011;3665;51.034;13.642;2023-02-26T16:10:15;2.90;;;1.60;;
7247;SDS011;3665;51.034;13.642;2023-02-26T16:15:21;3.13;;;1.73;;
7247;SDS011;3665;51.034;13.642;2023-02-26T16:25:29;2.73;;;1.10;;
7247;SDS011;3665;51.034;13.642;2023-02-26T16:30:29;2.00;;;1.20;;
7247;SDS011;3665;51.034;13.642;2023-02-26T16:35:16;5.23;;;1.70;;
7247;SDS011;3665;51.034;13.642;2023-02-26T16:40:06;3.20;;;1.60;;
7247;SDS011;3665;51.034;13.642;2023-02-26T16:50:27;3.17;;;1.70;;
7247;SDS011;3665;51.034;13.642;2023-02-26T16:55:16;2.73;;;1.63;;
7247;SDS011;3665;51.034;13.642;2023-02-26T17:00:02;4.43;;;1.93;;
7247;SDS011;3665;51.034;13.642;2023-02-26T17:04:56;3.03;;;1.37;;
7247;SDS011;3665;51.034;13.642;2023-02-26T17:09:48;2.17;;;1.70;;
7247;SDS011;3665;51.034;13.642;2023-02-26T17:14:47;2.17;;;1.50;;
7247;SDS011;3665;51.034;13.642;2023-02-26T17:19:50;4.73;;;1.97;;
7247;SDS011;3665;51.034;13.642;2023-02-26T17:24:35;2.60;;;1.80;;
7247;SDS011;3665;51.034;13.642;2023-02-26T17:29:25;5.50;;;2.70;;
7247;SDS011;3665;51.034;13.642;2023-02-26T17:34:12;1.43;;;1.23;;
7247;SDS011;3665;51.034;13.642;2023-02-26T17:38:59;2.47;;;1.67;;
7247;SDS011;3665;51.034;13.642;2023-02-26T17:43:48;1.93;;;1.30;;
7247;SDS011;3665;51.034;13.642;2023-02-26T17:48:35;1.53;;;1.40;;
7247;SDS011;3665;51.034;13.642;2023-02-26T17:53:28;3.13;;;1.67;;
7247;SDS011;3665;51.034;13.642;2023-02-26T17:58:22;3.03;;;1.80;;
7247;SDS011;3665;51.034;13.642;2023-02-26T18:03:15;3.03;;;2.00;;
7247;SDS011;3665;51.034;13.642;2023-02-26T18:08:04;3.90;;;1.60;;
7247;SDS011;3665;51.034;13.642;2023-02-26T18:12:51;2.83;;;2.07;;
7247;SDS011;3665;51.034;13.642;2023-02-26T18:17:40;2.83;;;1.60;;
7247;SDS011;3665;51.034;13.642;2023-02-26T18:22:30;3.30;;;1.50;;
7247;SDS011;3665;51.034;13.642;2023-02-26T18:27:18;2.80;;;2.23;;
7247;SDS011;3665;51.034;13.642;2023-02-26T18:32:04;6.13;;;2.10;;
7247;SDS011;3665;51.034;13.642;2023-02-26T18:36:52;3.50;;;1.90;;
7247;SDS011;3665;51.034;13.642;2023-02-26T18:41:41;3.27;;;2.27;;
7247;SDS011;3665;51.034;13.642;2023-02-26T18:46:29;4.07;;;2.87;;
7247;SDS011;3665;51.034;13.642;2023-02-26T18:51:15;2.63;;;2.37;;
7247;SDS011;3665;51.034;13.642;2023-02-26T18:56:05;4.03;;;1.90;;
7247;SDS011;3665;51.034;13.642;2023-02-26T19:00:51;3.63;;;1.50;;
7247;SDS011;3665;51.034;13.642;2023-02-26T19:05:40;5.00;;;2.00;;
7247;SDS011;3665;51.034;13.642;2023-02-26T19:10:27;2.23;;;1.67;;
7247;SDS011;3665;51.034;13.642;2023-02-26T19:15:15;2.23;;;1.40;;
7247;SDS011;3665;51.034;13.642;2023-02-26T19:20:02;3.13;;;1.77;;
7247;SDS011;3665;51.034;13.642;2023-02-26T19:24:53;3.03;;;2.40;;
7247;SDS011;3665;51.034;13.642;2023-02-26T19:29:39;2.77;;;1.60;;
7247;SDS011;3665;51.034;13.642;2023-02-26T19:34:24;2.93;;;1.63;;
7247;SDS011;3665;51.034;13.642;2023-02-26T19:39:17;4.33;;;2.70;;
7247;SDS011;3665;51.034;13.642;2023-02-26T19:44:04;4.13;;;2.37;;
7247;SDS011;3665;51.034;13.642;2023-02-26T19:48:54;2.90;;;1.90;;
7247;SDS011;3665;51.034;13.642;2023-02-26T19:53:39;3.57;;;2.17;;
7247;SDS011;3665;51.034;13.642;2023-02-26T19:58:26;3.60;;;1.87;;
7247;SDS011;3665;51.034;13.642;2023-02-26T20:03:15;4.63;;;1.97;;
7247;SDS011;3665;51.034;13.642;2023-02-26T20:07:58;3.30;;;1.70;;
7247;SDS011;3665;51.034;13.642;2023-02-26T20:12:50;2.07;;;1.50;;
7247;SDS011;3665;51.034;13.642;2023-02-26T20:17:39;1.60;;;1.37;;
7247;SDS011;3665;51.034;13.642;2023-02-26T20:22:31;3.13;;;1.97;;
7247;SDS011;3665;51.034;13.642;2023-02-26T20:27:15;0.90;;;0.90;;
7247;SDS011;3665;51.034;13.642;2023-02-26T20:31:58;2.63;;;1.30;;
7247;SDS011;3665;51.034;13.642;2023-02-26T20:36:51;1.23;;;1.13;;
7247;SDS011;3665;51.034;13.642;2023-02-26T20:41:40;1.63;;;1.20;;
7247;SDS011;3665;51.034;13.642;2023-02-26T20:46:28;1.73;;;1.20;;
7247;SDS011;3665;51.034;13.642;2023-02-26T20:51:15;1.87;;;1.30;;
7247;SDS011;3665;51.034;13.642;2023-02-26T20:56:04;3.57;;;1.53;;
7247;SDS011;3665;51.034;13.642;2023-02-26T21:00:52;2.83;;;1.30;;
7247;SDS011;3665;51.034;13.642;2023-02-26T21:05:39;2.57;;;1.50;;
7247;SDS011;3665;51.034;13.642;2023-02-26T21:10:29;2.33;;;1.37;;
7247;SDS011;3665;51.034;13.642;2023-02-26T21:15:15;2.50;;;1.70;;
7247;SDS011;3665;51.034;13.642;2023-02-26T21:20:05;2.50;;;1.37;;
7247;SDS011;3665;51.034;13.642;2023-02-26T21:24:51;3.13;;;1.90;;
7247;SDS011;3665;51.034;13.642;2023-02-26T21:29:39;2.83;;;1.40;;
7247;SDS011;3665;51.034;13.642;2023-02-26T21:34:27;2.40;;;1.10;;
7247;SDS011;3665;51.034;13.642;2023-02-26T21:39:16;1.63;;;1.03;;
7247;SDS011;3665;51.034;13.642;2023-02-26T22:07:34;2.20;;;1.10;;
7247;SDS011;3665;51.034;13.642;2023-02-26T22:12:51;1.10;;;0.90;;
7247;SDS011;3665;51.034;13.642;2023-02-26T22:19:01;2.97;;;1.30;;
7247;SDS011;3665;51.034;13.642;2023-02-26T22:41:10;1.47;;;1.13;;
7247;SDS011;3665;51.034;13.642;2023-02-26T22:46:43;2.20;;;1.20;;
